sensor_id;sensor_type;location;lat;lon;timestamp;temperature;humidity
38784;DHT22;24531;45.502;12.238;2023-09-08T00:01:57;25.30;75.00
38784;DHT22;24531;45.502;12.238;2023-09-08T00:04:22;25.20;75.10
38784;DHT22;24531;45.502;12.238;2023-09-08T00:06:49;25.20;75.20
38784;DHT22;24531;45.502;12.238;2023-09-08T00:09:14;25.20;75.30
38784;DHT22;24531;45.502;12.238;2023-09-08T00:11:40;25.20;75.40
38784;DHT22;24531;45.502;12.238;2023-09-08T00:14:06;25.20;75.40
38784;DHT22;24531;45.502;12.238;2023-09-08T00:16:31;25.20;75.40
38784;DHT22;24531;45.502;12.238;2023-09-08T00:18:57;25.20;75.50
38784;DHT22;24531;45.502;12.238;2023-09-08T00:21:26;25.20;75.50
38784;DHT22;24531;45.502;12.238;2023-09-08T00:23:52;25.20;75.70
38784;DHT22;24531;45.502;12.238;2023-09-08T00:26:18;25.20;76.30
38784;DHT22;24531;45.502;12.238;2023-09-08T00:28:44;25.10;92.10
38784;DHT22;24531;45.502;12.238;2023-09-08T00:31:10;25.00;96.60
38784;DHT22;24531;45.502;12.238;2023-09-08T00:33:35;25.10;99.90
38784;DHT22;24531;45.502;12.238;2023-09-08T00:36:02;25.20;97.10
38784;DHT22;24531;45.502;12.238;2023-09-08T00:38:27;25.20;97.50
38784;DHT22;24531;45.502;12.238;2023-09-08T00:40:53;25.10;98.80
38784;DHT22;24531;45.502;12.238;2023-09-08T00:43:19;25.10;99.60
38784;DHT22;24531;45.502;12.238;2023-09-08T00:45:45;25.10;99.50
38784;DHT22;24531;45.502;12.238;2023-09-08T00:48:12;25.10;99.50
38784;DHT22;24531;45.502;12.238;2023-09-08T00:50:38;25.10;99.90
38784;DHT22;24531;45.502;12.238;2023-09-08T00:53:05;25.10;98.60
38784;DHT22;24531;45.502;12.238;2023-09-08T00:55:31;25.10;98.90
38784;DHT22;24531;45.502;12.238;2023-09-08T00:57:58;25.00;76.80
38784;DHT22;24531;45.502;12.238;2023-09-08T01:00:27;25.00;76.10
38784;DHT22;24531;45.502;12.238;2023-09-08T01:02:53;25.00;75.70
38784;DHT22;24531;45.502;12.238;2023-09-08T01:05:19;25.00;76.00
38784;DHT22;24531;45.502;12.238;2023-09-08T01:07:46;24.90;76.00
38784;DHT22;24531;45.502;12.238;2023-09-08T01:10:13;24.90;75.50
38784;DHT22;24531;45.502;12.238;2023-09-08T01:12:39;24.80;75.60
38784;DHT22;24531;45.502;12.238;2023-09-08T01:15:06;24.90;75.70
38784;DHT22;24531;45.502;12.238;2023-09-08T01:17:31;24.80;75.70
38784;DHT22;24531;45.502;12.238;2023-09-08T01:20:04;24.80;75.80
38784;DHT22;24531;45.502;12.238;2023-09-08T01:22:45;24.80;75.90
38784;DHT22;24531;45.502;12.238;2023-09-08T01:25:21;24.80;75.90
38784;DHT22;24531;45.502;12.238;2023-09-08T01:27:52;24.80;76.00
38784;DHT22;24531;45.502;12.238;2023-09-08T01:30:18;24.80;76.10
38784;DHT22;24531;45.502;12.238;2023-09-08T01:32:45;24.70;76.10
38784;DHT22;24531;45.502;12.238;2023-09-08T01:35:11;24.70;76.10
38784;DHT22;24531;45.502;12.238;2023-09-08T01:37:40;24.60;76.10
38784;DHT22;24531;45.502;12.238;2023-09-08T01:40:07;24.70;76.30
38784;DHT22;24531;45.502;12.238;2023-09-08T01:42:34;24.60;76.30
38784;DHT22;24531;45.502;12.238;2023-09-08T01:44:59;24.60;76.30
38784;DHT22;24531;45.502;12.238;2023-09-08T01:47:25;24.60;76.30
38784;DHT22;24531;45.502;12.238;2023-09-08T01:49:51;24.60;76.20
38784;DHT22;24531;45.502;12.238;2023-09-08T01:52:16;24.60;76.20
38784;DHT22;24531;45.502;12.238;2023-09-08T01:54:42;24.60;76.30
38784;DHT22;24531;45.502;12.238;2023-09-08T01:57:08;24.60;76.30
38784;DHT22;24531;45.502;12.238;2023-09-08T01:59:33;24.60;76.40
38784;DHT22;24531;45.502;12.238;2023-09-08T02:01:59;24.60;76.40
38784;DHT22;24531;45.502;12.238;2023-09-08T02:04:25;24.60;76.40
38784;DHT22;24531;45.502;12.238;2023-09-08T02:06:50;24.50;76.30
38784;DHT22;24531;45.502;12.238;2023-09-08T02:09:16;24.60;76.40
38784;DHT22;24531;45.502;12.238;2023-09-08T02:11:41;24.50;76.30
38784;DHT22;24531;45.502;12.238;2023-09-08T02:14:07;24.50;76.40
38784;DHT22;24531;45.502;12.238;2023-09-08T02:16:33;24.50;76.40
38784;DHT22;24531;45.502;12.238;2023-09-08T02:18:59;24.50;76.50
38784;DHT22;24531;45.502;12.238;2023-09-08T02:21:24;24.50;76.70
38784;DHT22;24531;45.502;12.238;2023-09-08T02:23:50;24.50;76.80
38784;DHT22;24531;45.502;12.238;2023-09-08T02:26:16;24.50;76.90
38784;DHT22;24531;45.502;12.238;2023-09-08T02:28:41;24.40;77.10
38784;DHT22;24531;45.502;12.238;2023-09-08T02:31:07;24.40;77.30
38784;DHT22;24531;45.502;12.238;2023-09-08T02:33:32;24.40;77.10
38784;DHT22;24531;45.502;12.238;2023-09-08T02:36:05;24.40;77.20
38784;DHT22;24531;45.502;12.238;2023-09-08T02:38:32;24.30;77.20
38784;DHT22;24531;45.502;12.238;2023-09-08T02:40:57;24.40;77.20
38784;DHT22;24531;45.502;12.238;2023-09-08T02:43:23;24.30;77.20
38784;DHT22;24531;45.502;12.238;2023-09-08T02:45:49;24.40;77.20
38784;DHT22;24531;45.502;12.238;2023-09-08T02:48:15;24.40;77.30
38784;DHT22;24531;45.502;12.238;2023-09-08T02:50:42;24.30;77.30
38784;DHT22;24531;45.502;12.238;2023-09-08T02:53:07;24.30;77.50
38784;DHT22;24531;45.502;12.238;2023-09-08T02:55:33;24.30;77.70
38784;DHT22;24531;45.502;12.238;2023-09-08T02:57:59;24.20;77.70
38784;DHT22;24531;45.502;12.238;2023-09-08T03:00:24;24.20;77.70
38784;DHT22;24531;45.502;12.238;2023-09-08T03:02:50;24.20;77.80
38784;DHT22;24531;45.502;12.238;2023-09-08T03:05:16;24.20;77.70
38784;DHT22;24531;45.502;12.238;2023-09-08T03:07:41;24.20;77.70
38784;DHT22;24531;45.502;12.238;2023-09-08T03:10:07;24.10;77.80
38784;DHT22;24531;45.502;12.238;2023-09-08T03:12:33;24.10;77.80
38784;DHT22;24531;45.502;12.238;2023-09-08T03:15:01;24.00;77.90
38784;DHT22;24531;45.502;12.238;2023-09-08T03:17:27;24.00;78.00
38784;DHT22;24531;45.502;12.238;2023-09-08T03:19:53;24.00;78.10
38784;DHT22;24531;45.502;12.238;2023-09-08T03:22:18;24.00;78.00
38784;DHT22;24531;45.502;12.238;2023-09-08T03:24:44;24.00;78.10
38784;DHT22;24531;45.502;12.238;2023-09-08T03:27:09;24.00;78.10
38784;DHT22;24531;45.502;12.238;2023-09-08T03:29:35;24.00;78.20
38784;DHT22;24531;45.502;12.238;2023-09-08T03:32:01;24.00;78.20
38784;DHT22;24531;45.502;12.238;2023-09-08T03:34:26;24.00;78.20
38784;DHT22;24531;45.502;12.238;2023-09-08T03:36:53;24.00;78.30
38784;DHT22;24531;45.502;12.238;2023-09-08T03:39:18;24.00;78.40
38784;DHT22;24531;45.502;12.238;2023-09-08T03:41:45;24.00;78.40
38784;DHT22;24531;45.502;12.238;2023-09-08T03:44:11;23.90;78.50
38784;DHT22;24531;45.502;12.238;2023-09-08T03:46:37;23.90;78.70
38784;DHT22;24531;45.502;12.238;2023-09-08T03:49:02;23.90;78.80
38784;DHT22;24531;45.502;12.238;2023-09-08T03:51:28;23.90;78.90
38784;DHT22;24531;45.502;12.238;2023-09-08T03:53:54;23.90;79.10
38784;DHT22;24531;45.502;12.238;2023-09-08T03:56:20;23.80;79.20
38784;DHT22;24531;45.502;12.238;2023-09-08T03:58:46;23.80;79.20
38784;DHT22;24531;45.502;12.238;2023-09-08T04:01:12;23.80;79.30
38784;DHT22;24531;45.502;12.238;2023-09-08T04:03:38;23.80;79.30
38784;DHT22;24531;45.502;12.238;2023-09-08T04:06:03;23.80;79.50
38784;DHT22;24531;45.502;12.238;2023-09-08T04:08:29;23.80;79.50
38784;DHT22;24531;45.502;12.238;2023-09-08T04:10:54;23.80;79.60
38784;DHT22;24531;45.502;12.238;2023-09-08T04:13:20;23.80;79.50
38784;DHT22;24531;45.502;12.238;2023-09-08T04:15:45;23.80;79.50
38784;DHT22;24531;45.502;12.238;2023-09-08T04:18:11;23.80;79.60
38784;DHT22;24531;45.502;12.238;2023-09-08T04:20:37;23.80;79.60
38784;DHT22;24531;45.502;12.238;2023-09-08T04:23:02;23.80;79.60
38784;DHT22;24531;45.502;12.238;2023-09-08T04:25:28;23.80;79.70
38784;DHT22;24531;45.502;12.238;2023-09-08T04:27:54;23.80;79.80
38784;DHT22;24531;45.502;12.238;2023-09-08T04:30:19;23.80;79.80
38784;DHT22;24531;45.502;12.238;2023-09-08T04:32:45;23.80;79.90
38784;DHT22;24531;45.502;12.238;2023-09-08T04:35:10;23.80;79.90
38784;DHT22;24531;45.502;12.238;2023-09-08T04:37:36;23.80;80.00
38784;DHT22;24531;45.502;12.238;2023-09-08T04:40:03;23.80;80.00
38784;DHT22;24531;45.502;12.238;2023-09-08T04:42:29;23.70;80.30
38784;DHT22;24531;45.502;12.238;2023-09-08T04:44:56;23.70;80.50
38784;DHT22;24531;45.502;12.238;2023-09-08T04:47:22;23.70;80.60
38784;DHT22;24531;45.502;12.238;2023-09-08T04:49:47;23.70;80.60
38784;DHT22;24531;45.502;12.238;2023-09-08T04:52:13;23.60;80.70
38784;DHT22;24531;45.502;12.238;2023-09-08T04:54:39;23.60;80.70
38784;DHT22;24531;45.502;12.238;2023-09-08T04:57:04;23.70;80.90
38784;DHT22;24531;45.502;12.238;2023-09-08T04:59:30;23.70;80.80
38784;DHT22;24531;45.502;12.238;2023-09-08T05:01:56;23.70;80.80
38784;DHT22;24531;45.502;12.238;2023-09-08T05:04:22;23.70;80.90
38784;DHT22;24531;45.502;12.238;2023-09-08T05:06:47;23.70;81.00
38784;DHT22;24531;45.502;12.238;2023-09-08T05:09:13;23.70;81.10
38784;DHT22;24531;45.502;12.238;2023-09-08T05:11:39;23.70;81.10
38784;DHT22;24531;45.502;12.238;2023-09-08T05:14:04;23.70;81.20
38784;DHT22;24531;45.502;12.238;2023-09-08T05:16:30;23.70;81.30
38784;DHT22;24531;45.502;12.238;2023-09-08T05:19:03;23.70;81.50
38784;DHT22;24531;45.502;12.238;2023-09-08T05:21:30;23.70;81.60
38784;DHT22;24531;45.502;12.238;2023-09-08T05:23:56;23.70;81.60
38784;DHT22;24531;45.502;12.238;2023-09-08T05:26:22;23.70;81.60
38784;DHT22;24531;45.502;12.238;2023-09-08T05:28:47;23.70;81.70
38784;DHT22;24531;45.502;12.238;2023-09-08T05:31:13;23.80;81.70
38784;DHT22;24531;45.502;12.238;2023-09-08T05:33:38;23.80;81.60
38784;DHT22;24531;45.502;12.238;2023-09-08T05:36:04;23.90;81.50
38784;DHT22;24531;45.502;12.238;2023-09-08T05:38:30;23.90;81.40
38784;DHT22;24531;45.502;12.238;2023-09-08T05:40:56;23.90;81.50
38784;DHT22;24531;45.502;12.238;2023-09-08T05:43:24;24.00;81.70
38784;DHT22;24531;45.502;12.238;2023-09-08T05:45:50;24.00;81.70
38784;DHT22;24531;45.502;12.238;2023-09-08T05:48:16;24.10;81.70
38784;DHT22;24531;45.502;12.238;2023-09-08T05:50:42;24.20;81.60
38784;DHT22;24531;45.502;12.238;2023-09-08T05:53:08;24.30;81.70
38784;DHT22;24531;45.502;12.238;2023-09-08T05:55:33;24.30;81.60
38784;DHT22;24531;45.502;12.238;2023-09-08T05:57:59;24.40;81.70
38784;DHT22;24531;45.502;12.238;2023-09-08T06:00:24;24.40;81.60
38784;DHT22;24531;45.502;12.238;2023-09-08T06:02:50;24.50;81.70
38784;DHT22;24531;45.502;12.238;2023-09-08T06:05:16;24.50;81.80
38784;DHT22;24531;45.502;12.238;2023-09-08T06:07:41;24.50;81.70
38784;DHT22;24531;45.502;12.238;2023-09-08T06:10:07;24.60;81.80
38784;DHT22;24531;45.502;12.238;2023-09-08T06:12:33;24.70;81.90
38784;DHT22;24531;45.502;12.238;2023-09-08T06:14:59;24.70;81.80
38784;DHT22;24531;45.502;12.238;2023-09-08T06:17:24;24.80;81.60
38784;DHT22;24531;45.502;12.238;2023-09-08T06:19:50;24.80;81.50
38784;DHT22;24531;45.502;12.238;2023-09-08T06:22:16;24.90;81.50
38784;DHT22;24531;45.502;12.238;2023-09-08T06:24:41;24.90;81.60
38784;DHT22;24531;45.502;12.238;2023-09-08T06:27:07;24.90;81.50
38784;DHT22;24531;45.502;12.238;2023-09-08T06:29:33;25.00;81.40
38784;DHT22;24531;45.502;12.238;2023-09-08T06:31:59;25.10;81.30
38784;DHT22;24531;45.502;12.238;2023-09-08T06:34:24;25.10;81.30
38784;DHT22;24531;45.502;12.238;2023-09-08T06:36:50;25.20;81.40
38784;DHT22;24531;45.502;12.238;2023-09-08T06:39:15;25.30;81.30
38784;DHT22;24531;45.502;12.238;2023-09-08T06:41:41;25.40;81.50
38784;DHT22;24531;45.502;12.238;2023-09-08T06:44:06;25.50;81.50
38784;DHT22;24531;45.502;12.238;2023-09-08T06:46:32;25.60;81.30
38784;DHT22;24531;45.502;12.238;2023-09-08T06:48:58;25.60;82.00
38784;DHT22;24531;45.502;12.238;2023-09-08T06:51:23;25.70;81.00
38784;DHT22;24531;45.502;12.238;2023-09-08T06:53:57;25.80;80.70
38784;DHT22;24531;45.502;12.238;2023-09-08T06:56:23;25.90;80.70
38784;DHT22;24531;45.502;12.238;2023-09-08T06:58:49;26.00;80.40
38784;DHT22;24531;45.502;12.238;2023-09-08T07:01:14;26.10;80.20
38784;DHT22;24531;45.502;12.238;2023-09-08T07:03:40;26.30;80.00
38784;DHT22;24531;45.502;12.238;2023-09-08T07:06:06;26.40;79.90
38784;DHT22;24531;45.502;12.238;2023-09-08T07:08:31;26.50;79.60
38784;DHT22;24531;45.502;12.238;2023-09-08T07:10:57;26.60;79.20
38784;DHT22;24531;45.502;12.238;2023-09-08T07:13:23;26.80;78.90
38784;DHT22;24531;45.502;12.238;2023-09-08T07:15:48;27.00;78.40
38784;DHT22;24531;45.502;12.238;2023-09-08T07:18:14;27.10;78.00
38784;DHT22;24531;45.502;12.238;2023-09-08T07:20:39;27.30;77.80
38784;DHT22;24531;45.502;12.238;2023-09-08T07:23:06;27.50;77.40
38784;DHT22;24531;45.502;12.238;2023-09-08T07:25:31;27.70;76.90
38784;DHT22;24531;45.502;12.238;2023-09-08T07:27:57;27.90;76.40
38784;DHT22;24531;45.502;12.238;2023-09-08T07:30:22;28.10;75.80
38784;DHT22;24531;45.502;12.238;2023-09-08T07:32:48;28.30;75.70
38784;DHT22;24531;45.502;12.238;2023-09-08T07:35:17;28.40;75.10
38784;DHT22;24531;45.502;12.238;2023-09-08T07:37:44;28.60;74.00
38784;DHT22;24531;45.502;12.238;2023-09-08T07:40:10;28.90;73.10
38784;DHT22;24531;45.502;12.238;2023-09-08T07:42:36;29.30;72.60
38784;DHT22;24531;45.502;12.238;2023-09-08T07:45:01;29.70;71.60
38784;DHT22;24531;45.502;12.238;2023-09-08T07:47:27;30.10;70.80
38784;DHT22;24531;45.502;12.238;2023-09-08T07:50:16;30.40;69.70
38784;DHT22;24531;45.502;12.238;2023-09-08T07:52:42;30.90;69.20
38784;DHT22;24531;45.502;12.238;2023-09-08T07:55:07;31.40;67.90
38784;DHT22;24531;45.502;12.238;2023-09-08T07:57:33;31.80;67.10
38784;DHT22;24531;45.502;12.238;2023-09-08T07:59:59;32.30;66.20
38784;DHT22;24531;45.502;12.238;2023-09-08T08:02:24;33.00;65.20
38784;DHT22;24531;45.502;12.238;2023-09-08T08:04:50;33.60;64.20
38784;DHT22;24531;45.502;12.238;2023-09-08T08:07:15;34.10;63.20
38784;DHT22;24531;45.502;12.238;2023-09-08T08:09:48;34.50;62.70
38784;DHT22;24531;45.502;12.238;2023-09-08T08:12:13;35.00;61.70
38784;DHT22;24531;45.502;12.238;2023-09-08T08:14:39;35.30;61.10
38784;DHT22;24531;45.502;12.238;2023-09-08T08:17:05;35.90;60.50
38784;DHT22;24531;45.502;12.238;2023-09-08T08:19:31;36.30;59.40
38784;DHT22;24531;45.502;12.238;2023-09-08T08:21:56;36.60;58.30
38784;DHT22;24531;45.502;12.238;2023-09-08T08:24:23;36.70;57.60
38784;DHT22;24531;45.502;12.238;2023-09-08T08:26:48;37.00;57.10
38784;DHT22;24531;45.502;12.238;2023-09-08T08:29:17;37.20;56.30
38784;DHT22;24531;45.502;12.238;2023-09-08T08:31:42;37.50;55.80
38784;DHT22;24531;45.502;12.238;2023-09-08T08:34:08;37.70;55.10
38784;DHT22;24531;45.502;12.238;2023-09-08T08:36:34;38.00;54.80
38784;DHT22;24531;45.502;12.238;2023-09-08T08:39:00;38.50;54.40
38784;DHT22;24531;45.502;12.238;2023-09-08T08:41:26;38.90;54.10
38784;DHT22;24531;45.502;12.238;2023-09-08T08:43:52;39.20;53.30
38784;DHT22;24531;45.502;12.238;2023-09-08T08:46:21;39.50;52.60
38784;DHT22;24531;45.502;12.238;2023-09-08T08:48:48;39.70;52.10
38784;DHT22;24531;45.502;12.238;2023-09-08T08:51:17;39.90;51.80
38784;DHT22;24531;45.502;12.238;2023-09-08T08:53:43;40.30;51.20
38784;DHT22;24531;45.502;12.238;2023-09-08T08:56:10;40.60;50.90
38784;DHT22;24531;45.502;12.238;2023-09-08T08:58:37;41.00;50.30
38784;DHT22;24531;45.502;12.238;2023-09-08T09:01:06;41.30;49.70
38784;DHT22;24531;45.502;12.238;2023-09-08T09:03:33;41.30;48.90
38784;DHT22;24531;45.502;12.238;2023-09-08T09:06:00;41.30;48.70
38784;DHT22;24531;45.502;12.238;2023-09-08T09:08:27;41.60;48.50
38784;DHT22;24531;45.502;12.238;2023-09-08T09:10:53;42.10;48.10
38784;DHT22;24531;45.502;12.238;2023-09-08T09:13:19;42.20;47.40
38784;DHT22;24531;45.502;12.238;2023-09-08T09:15:45;42.40;47.70
38784;DHT22;24531;45.502;12.238;2023-09-08T09:18:12;42.60;46.70
38784;DHT22;24531;45.502;12.238;2023-09-08T09:20:38;42.90;46.60
38784;DHT22;24531;45.502;12.238;2023-09-08T09:23:05;43.10;46.30
38784;DHT22;24531;45.502;12.238;2023-09-08T09:25:31;43.50;45.90
38784;DHT22;24531;45.502;12.238;2023-09-08T09:27:58;43.80;45.40
38784;DHT22;24531;45.502;12.238;2023-09-08T09:30:25;43.90;44.80
38784;DHT22;24531;45.502;12.238;2023-09-08T09:33:11;43.90;44.30
38784;DHT22;24531;45.502;12.238;2023-09-08T09:35:41;44.00;43.90
38784;DHT22;24531;45.502;12.238;2023-09-08T09:38:07;44.20;43.80
38784;DHT22;24531;45.502;12.238;2023-09-08T09:40:34;44.40;43.20
38784;DHT22;24531;45.502;12.238;2023-09-08T09:42:59;44.20;42.70
38784;DHT22;24531;45.502;12.238;2023-09-08T09:45:26;44.20;42.90
38784;DHT22;24531;45.502;12.238;2023-09-08T09:47:52;44.40;42.70
38784;DHT22;24531;45.502;12.238;2023-09-08T09:50:36;44.50;42.60
38784;DHT22;24531;45.502;12.238;2023-09-08T09:53:15;44.70;42.10
38784;DHT22;24531;45.502;12.238;2023-09-08T09:55:43;44.80;42.10
38784;DHT22;24531;45.502;12.238;2023-09-08T09:58:09;45.10;41.90
38784;DHT22;24531;45.502;12.238;2023-09-08T10:00:36;45.40;41.60
38784;DHT22;24531;45.502;12.238;2023-09-08T10:03:04;45.20;41.30
38784;DHT22;24531;45.502;12.238;2023-09-08T10:05:30;45.10;41.30
38784;DHT22;24531;45.502;12.238;2023-09-08T10:07:56;45.20;41.10
38784;DHT22;24531;45.502;12.238;2023-09-08T10:10:22;45.10;41.80
38784;DHT22;24531;45.502;12.238;2023-09-08T10:12:55;45.10;41.00
38784;DHT22;24531;45.502;12.238;2023-09-08T10:15:23;44.90;41.40
38784;DHT22;24531;45.502;12.238;2023-09-08T10:17:56;44.30;41.00
38784;DHT22;24531;45.502;12.238;2023-09-08T10:20:26;43.30;41.50
38784;DHT22;24531;45.502;12.238;2023-09-08T10:25:47;41.50;43.00
38784;DHT22;24531;45.502;12.238;2023-09-08T10:28:21;40.50;43.70
38784;DHT22;24531;45.502;12.238;2023-09-08T10:30:48;39.70;44.50
38784;DHT22;24531;45.502;12.238;2023-09-08T10:33:15;38.90;44.50
38784;DHT22;24531;45.502;12.238;2023-09-08T10:35:42;37.90;45.10
38784;DHT22;24531;45.502;12.238;2023-09-08T10:38:32;37.70;45.70
38784;DHT22;24531;45.502;12.238;2023-09-08T10:43:55;36.80;46.50
38784;DHT22;24531;45.502;12.238;2023-09-08T10:46:23;36.70;47.10
38784;DHT22;24531;45.502;12.238;2023-09-08T10:48:48;36.50;47.30
38784;DHT22;24531;45.502;12.238;2023-09-08T10:51:14;36.30;47.30
38784;DHT22;24531;45.502;12.238;2023-09-08T10:53:41;36.20;47.70
38784;DHT22;24531;45.502;12.238;2023-09-08T10:56:07;36.00;47.70
38784;DHT22;24531;45.502;12.238;2023-09-08T10:58:36;35.70;48.20
38784;DHT22;24531;45.502;12.238;2023-09-08T11:01:16;35.70;48.30
38784;DHT22;24531;45.502;12.238;2023-09-08T11:03:44;35.60;48.70
38784;DHT22;24531;45.502;12.238;2023-09-08T11:06:12;35.60;49.00
38784;DHT22;24531;45.502;12.238;2023-09-08T11:08:41;35.50;48.80
38784;DHT22;24531;45.502;12.238;2023-09-08T11:11:07;35.30;48.80
38784;DHT22;24531;45.502;12.238;2023-09-08T11:13:33;35.20;49.10
38784;DHT22;24531;45.502;12.238;2023-09-08T11:15:58;35.10;49.50
38784;DHT22;24531;45.502;12.238;2023-09-08T11:18:30;35.00;49.60
38784;DHT22;24531;45.502;12.238;2023-09-08T11:20:56;35.00;49.70
38784;DHT22;24531;45.502;12.238;2023-09-08T11:23:23;34.90;49.60
38784;DHT22;24531;45.502;12.238;2023-09-08T11:25:50;34.80;49.80
38784;DHT22;24531;45.502;12.238;2023-09-08T11:28:17;34.70;49.90
38784;DHT22;24531;45.502;12.238;2023-09-08T11:30:42;34.50;50.00
38784;DHT22;24531;45.502;12.238;2023-09-08T11:33:18;34.50;50.20
38784;DHT22;24531;45.502;12.238;2023-09-08T11:35:47;34.50;50.10
38784;DHT22;24531;45.502;12.238;2023-09-08T11:38:13;34.50;50.10
38784;DHT22;24531;45.502;12.238;2023-09-08T11:40:39;34.40;50.20
38784;DHT22;24531;45.502;12.238;2023-09-08T11:43:05;34.30;50.40
38784;DHT22;24531;45.502;12.238;2023-09-08T11:45:34;34.30;50.50
38784;DHT22;24531;45.502;12.238;2023-09-08T11:48:00;34.40;51.40
38784;DHT22;24531;45.502;12.238;2023-09-08T11:50:26;34.30;50.70
38784;DHT22;24531;45.502;12.238;2023-09-08T11:52:53;34.30;51.40
38784;DHT22;24531;45.502;12.238;2023-09-08T11:55:21;34.20;50.80
38784;DHT22;24531;45.502;12.238;2023-09-08T11:57:49;34.20;50.90
38784;DHT22;24531;45.502;12.238;2023-09-08T12:00:17;34.20;50.70
38784;DHT22;24531;45.502;12.238;2023-09-08T12:02:45;34.20;50.90
38784;DHT22;24531;45.502;12.238;2023-09-08T12:05:12;34.20;50.70
38784;DHT22;24531;45.502;12.238;2023-09-08T12:07:39;34.30;50.90
38784;DHT22;24531;45.502;12.238;2023-09-08T12:10:11;34.20;51.20
38784;DHT22;24531;45.502;12.238;2023-09-08T12:12:53;34.30;51.10
38784;DHT22;24531;45.502;12.238;2023-09-08T12:15:39;34.30;51.10
38784;DHT22;24531;45.502;12.238;2023-09-08T12:18:09;34.40;50.90
38784;DHT22;24531;45.502;12.238;2023-09-08T12:20:36;34.40;51.30
38784;DHT22;24531;45.502;12.238;2023-09-08T12:23:04;34.50;51.40
38784;DHT22;24531;45.502;12.238;2023-09-08T12:25:30;34.40;51.30
38784;DHT22;24531;45.502;12.238;2023-09-08T12:28:00;34.40;51.10
38784;DHT22;24531;45.502;12.238;2023-09-08T12:30:27;34.40;51.30
38784;DHT22;24531;45.502;12.238;2023-09-08T12:32:59;34.50;51.20
38784;DHT22;24531;45.502;12.238;2023-09-08T12:35:25;34.50;51.20
38784;DHT22;24531;45.502;12.238;2023-09-08T12:40:23;34.50;51.00
38784;DHT22;24531;45.502;12.238;2023-09-08T12:42:49;34.40;50.90
38784;DHT22;24531;45.502;12.238;2023-09-08T12:45:15;34.30;50.80
38784;DHT22;24531;45.502;12.238;2023-09-08T12:47:40;34.20;51.10
38784;DHT22;24531;45.502;12.238;2023-09-08T12:50:06;34.20;51.00
38784;DHT22;24531;45.502;12.238;2023-09-08T12:52:32;34.20;50.90
38784;DHT22;24531;45.502;12.238;2023-09-08T12:54:58;34.10;50.90
38784;DHT22;24531;45.502;12.238;2023-09-08T12:57:24;34.00;51.10
38784;DHT22;24531;45.502;12.238;2023-09-08T12:59:49;34.10;51.50
38784;DHT22;24531;45.502;12.238;2023-09-08T13:02:17;34.20;51.70
38784;DHT22;24531;45.502;12.238;2023-09-08T13:04:42;34.20;51.30
38784;DHT22;24531;45.502;12.238;2023-09-08T13:07:17;34.20;51.40
38784;DHT22;24531;45.502;12.238;2023-09-08T13:09:42;34.10;51.30
38784;DHT22;24531;45.502;12.238;2023-09-08T13:12:08;34.10;51.10
38784;DHT22;24531;45.502;12.238;2023-09-08T13:14:40;34.10;51.30
38784;DHT22;24531;45.502;12.238;2023-09-08T13:17:05;34.00;51.30
38784;DHT22;24531;45.502;12.238;2023-09-08T13:19:34;34.00;51.40
38784;DHT22;24531;45.502;12.238;2023-09-08T13:21:59;34.00;51.30
38784;DHT22;24531;45.502;12.238;2023-09-08T13:24:25;33.90;51.20
38784;DHT22;24531;45.502;12.238;2023-09-08T13:26:51;34.00;51.40
38784;DHT22;24531;45.502;12.238;2023-09-08T13:29:17;34.00;51.20
38784;DHT22;24531;45.502;12.238;2023-09-08T13:31:44;34.00;50.90
38784;DHT22;24531;45.502;12.238;2023-09-08T13:34:09;34.10;51.00
38784;DHT22;24531;45.502;12.238;2023-09-08T13:36:35;34.20;51.10
38784;DHT22;24531;45.502;12.238;2023-09-08T13:39:00;34.20;51.20
38784;DHT22;24531;45.502;12.238;2023-09-08T13:41:50;34.10;51.80
38784;DHT22;24531;45.502;12.238;2023-09-08T13:44:17;34.10;50.90
38784;DHT22;24531;45.502;12.238;2023-09-08T13:46:43;34.10;51.20
38784;DHT22;24531;45.502;12.238;2023-09-08T13:49:09;34.20;51.20
38784;DHT22;24531;45.502;12.238;2023-09-08T13:51:34;34.20;51.10
38784;DHT22;24531;45.502;12.238;2023-09-08T13:54:00;34.20;50.70
38784;DHT22;24531;45.502;12.238;2023-09-08T13:56:26;34.20;50.30
38784;DHT22;24531;45.502;12.238;2023-09-08T13:58:54;34.10;50.30
38784;DHT22;24531;45.502;12.238;2023-09-08T14:01:19;34.00;50.30
38784;DHT22;24531;45.502;12.238;2023-09-08T14:03:45;34.00;50.40
38784;DHT22;24531;45.502;12.238;2023-09-08T14:06:11;34.00;50.60
38784;DHT22;24531;45.502;12.238;2023-09-08T14:08:36;34.00;50.70
38784;DHT22;24531;45.502;12.238;2023-09-08T14:11:02;33.90;50.90
38784;DHT22;24531;45.502;12.238;2023-09-08T14:13:28;33.90;51.30
38784;DHT22;24531;45.502;12.238;2023-09-08T14:15:54;34.10;51.20
38784;DHT22;24531;45.502;12.238;2023-09-08T14:18:19;34.10;50.80
38784;DHT22;24531;45.502;12.238;2023-09-08T14:20:45;34.10;50.70
38784;DHT22;24531;45.502;12.238;2023-09-08T14:23:10;34.20;50.80
38784;DHT22;24531;45.502;12.238;2023-09-08T14:25:36;34.20;50.70
38784;DHT22;24531;45.502;12.238;2023-09-08T14:28:02;34.20;50.90
38784;DHT22;24531;45.502;12.238;2023-09-08T14:30:29;34.20;50.80
38784;DHT22;24531;45.502;12.238;2023-09-08T14:32:54;34.20;50.80
38784;DHT22;24531;45.502;12.238;2023-09-08T14:35:20;34.10;50.70
38784;DHT22;24531;45.502;12.238;2023-09-08T14:37:48;34.10;50.90
38784;DHT22;24531;45.502;12.238;2023-09-08T14:40:15;33.70;50.70
38784;DHT22;24531;45.502;12.238;2023-09-08T14:42:41;34.20;51.20
38784;DHT22;24531;45.502;12.238;2023-09-08T14:45:07;34.20;51.30
38784;DHT22;24531;45.502;12.238;2023-09-08T14:47:33;34.20;51.50
38784;DHT22;24531;45.502;12.238;2023-09-08T14:49:59;34.20;51.50
38784;DHT22;24531;45.502;12.238;2023-09-08T14:52:24;34.10;51.10
38784;DHT22;24531;45.502;12.238;2023-09-08T14:54:50;34.00;51.00
38784;DHT22;24531;45.502;12.238;2023-09-08T14:57:16;33.80;51.20
38784;DHT22;24531;45.502;12.238;2023-09-08T14:59:42;33.70;51.20
38784;DHT22;24531;45.502;12.238;2023-09-08T15:02:08;33.80;51.10
38784;DHT22;24531;45.502;12.238;2023-09-08T15:04:34;33.80;51.00
38784;DHT22;24531;45.502;12.238;2023-09-08T15:07:00;33.70;50.80
38784;DHT22;24531;45.502;12.238;2023-09-08T15:09:25;33.70;50.80
38784;DHT22;24531;45.502;12.238;2023-09-08T15:11:51;33.70;51.10
38784;DHT22;24531;45.502;12.238;2023-09-08T15:14:16;33.70;51.10
38784;DHT22;24531;45.502;12.238;2023-09-08T15:16:42;33.70;51.10
38784;DHT22;24531;45.502;12.238;2023-09-08T15:19:08;33.60;51.10
38784;DHT22;24531;45.502;12.238;2023-09-08T15:21:33;33.60;51.10